Aktualne dane pomiarowe

Uwaga, wersja testowa! Automatyczne pobieranie danych za pomocą narzędzi lub skryptów to umożliwiających jest zabronione.

Dane meteo z obszaru Polski uzyskane na podstawie depesz SYNOP pobieranych co godzinę z NWS. Najedź myszką na symbol przedstawiony w tabeli, aby uzyskać informacje co do jego znaczenia. Prosimy pamiętać, że to testowa wersja strony, która jeszcze nie jest ukończona. Stworzono również jest krótki FAQ dotyczący korzystania z tej podstrony Anomalie temperatury w chwili obecnej odniesione są do okresu referencyjnego 1951-2016. Okres ten będzie później zmieniony na 1981-2010. Kliknij ikonę aby pobrać plik CSV. Kliknij ikonę aby wygenerować mapę synoptyczną dla danego terminu.

Wybierz Datę:    

        

Siedlce (12385)

Dane terminowe dla wybranej stacji. Kliknij datę, aby otrzymać dane z tego terminu dla wszystkich stacji.

TemperaturaZachmurzenieWiatrCiśnienieOpadyPogoda
 Data t td wb tx tn tg rh  Nt Nl Cl Cm Ch ws wd g1 g2 wx mslp ppp ch 24h 12h t ww ww w1 w2  
2019-07-20 23:00:00 14.7 13.6 13.9--- 934.4wx-0---01017.7 999.1 0.6---wx22--
2019-07-20 22:00:00 15.8 14.3 14.7--- 918.0wx-0---01017.5 999.0 0.7---wx22--
2019-07-20 21:00:00 17.8 14.5 15.5--- 8111.0wx-1wx---1017.2 998.8 0.9---------
2019-07-20 20:00:00 18.2 15.3 16.2--- 8310.0wx-wxwx0---01016.9 998.5 0.6---------
2019-07-20 19:00:00 20.1 15.7 17.1--- 7612.0wx-wxwx1wx--11016.6 998.3 0.4---------
2019-07-20 18:00:00 23.1 15.2 18.0 26.7 16.0- 6140.0wx-wxwx0---01016.0 997.9 -0.2- 3.012wx-w1--
2019-07-20 17:00:00 25.5 14.0 18.3--- 4930.0wxwxwxwxwx2wx--21015.8 997.9 -0.3---------
2019-07-20 16:00:00 25.8 14.3 18.5--- 4930.0wxwxwxwxwx2wx--21015.8 997.9 -0.4---------
2019-07-20 15:00:00 26.4 14.2 18.7--- 4730.0wxwxwxwxwx2wx---1016.0 998.1 -0.1---wx---
2019-07-20 14:00:00 26.3 13.8 18.5--- 4621.0wxwxwxwxwx3wx--31016.1 998.2 -0.2---wx---
2019-07-20 13:00:00 26.1 14.9 19.0--- 5028.0wxwxwxwxwx4wx--41016.2 998.3 -0.3---------
2019-07-20 12:00:00 25.6 14.1 18.4--- 4925.0wxwxwxwx1wx--11016.1 998.2 -0.7- 3.06wx-w1--
2019-07-20 11:00:00 25.3 13.5 17.9--- 4826.0wxwxwx2wx--21016.3 998.4 -0.2---------
2019-07-20 10:00:00 24.3 15.2 18.4--- 5725.0wxwxwxwx3wx--31016.6 998.6 0.1---------
2019-07-20 09:00:00 22.1 17.2 18.7--- 7428.0wxwxwxwx2wx--21017.0 998.9 0.5---wx-w1--
2019-07-20 08:00:00 19.4 17.4 18.0--- 8819.0wxwxwxwx1wx--11016.9 998.6 0.5---wx-w1--
2019-07-20 07:00:00 17.1 16.3 16.5--- 959.0wxwxwxwx1wx--11016.9 998.5 0.8---wx-w1w2--
2019-07-20 06:00:00 16.0 15.2 15.4 21.7 16.0 15 955.0wxwxwx2wx--21016.9 998.4 1.2 4.7 5.012wx-w1- 12.8
2019-07-20 05:00:00 16.5 14.7 15.2--- 897.0wxwxwxwx2wx---1016.6 998.1 1.1---wx-w1--
2019-07-20 04:00:00 17.1 14.2 15.1--- 8317.0wxwxwxwx1wx--11016.1 997.7 0.7---wx---
2019-07-20 03:00:00 17.1 13.2 14.5--- 7824.0wxwxwxwx1wx--11015.6 997.2 0.4---wx---
2019-07-20 02:00:00 17.3 13.0 14.5--- 7623.0wxwxwxwx2wx--21015.4 997.0 0.1---------
2019-07-20 01:00:00 17.8 12.7 14.5--- 7230.0wx-wx2wx--21015.4 997.0 0.2---------
2019-07-20 00:00:00 18.0 12.7 14.6--- 7128.0wx-wx2wx--21015.2 996.8 0.5- 0.06------
2019-07-19 23:00:00 18.4 12.2 14.4--- 6730.0wx-wx1wx---1015.2 996.9 0.8---------
2019-07-19 22:00:00 19.8 11.0 14.4--- 5730.0wx-wx1wx--11015.0 996.8 1.0---------
2019-07-19 21:00:00 18.0 13.5 15.0--- 7514.0wx-wx1wx--11014.6 996.3 0.8---------
2019-07-19 20:00:00 17.9 13.2 14.8--- 7410.0wx-wx1wx--11014.4 996.1 0.7---------
2019-07-19 19:00:00 18.3 11.8 14.2--- 6610.0wx-wxwx0---01014.1 995.8 0.5---------
2019-07-19 18:00:00 21.7 10.5 15.0 27.3 18.5- 4913.0wxwxwxwxwx1wx--11013.6 995.5 0.1- 0.012------
2019-07-19 17:00:00 26.1 6.7 15.2--- 2927.0wxwxwxwx1wx--11013.2 995.4 -0.3---------
2019-07-19 16:00:00 26.3 6.3 15.2--- 2840.0wxwxwxwx2wx--21013.1 995.3 -0.5---------
2019-07-19 15:00:00 27.1 6.5 15.6--- 2730.0wxwxwxwx2wx--21013.2 995.4 -0.6---------
2019-07-19 14:00:00 26.9 6.8 15.6--- 2830.0wxwxwxwx2wx--21013.5 995.7 -0.5---------
2019-07-19 13:00:00 25.7 7.8 15.5--- 3235.0wxwxwxwxwx2wx--21013.7 995.8 -0.7---------
2019-07-19 12:00:00 26.3 9.2 16.4--- 3429.0wxwxwxwxwx3wx--31013.8 996.0 -0.5- 0.06------
2019-07-19 11:00:00 24.9 8.4 15.4--- 3530.0wxwxwxwx1wx--11014.1 996.2 -0.5---------
2019-07-19 10:00:00 24.8 8.3 15.4--- 3530.0wxwxwx3wx--31014.4 996.5 -0.2---------
2019-07-19 09:00:00 24.2 9.0 15.4--- 3828.0wxwxwx2wx--21014.5 996.5 -0.2---------
2019-07-19 08:00:00 22.8 9.9 15.2--- 4430.0wxwxwxwx2wx--21014.8 996.7 0.1---------
2019-07-19 07:00:00 21.2 10.1 14.6--- 4930.0wx-wx2wx--21014.9 996.7 0.1---------
2019-07-19 06:00:00 18.5 11.3 14.0 20.2 8.1 5 6325.0wx-wx1wx--11015.0 996.7 0.2- 0.012-22--- 9.9
2019-07-19 05:00:00 15.0 13.9 14.2--- 9318.0wx-wx0---01015.1 996.6 0.2----22----
2019-07-19 04:00:00 10.4 10.1 10.1--- 986.0wx-1wx--11015.4 996.6 0.3---wx22--
2019-07-19 03:00:00 8.5 8.1 8.2--- 974.6wx-wx1wx--11015.5 996.5 0.2---wx22--
2019-07-19 02:00:00 8.2 7.6 7.7--- 966.0wx-wx1wx--11015.4 996.4 0.2---wx22--
2019-07-19 01:00:00 9.3 8.7 8.8--- 966.0wx-wx1wx--11015.2 996.3 0.4---wx22--
2019-07-19 00:00:00 9.8 9.0 9.2--- 956.0wx-0---01015.2 996.3 0.7- 0.06wx22--
1.8 ms

 

Print Friendly, PDF & Email